Time;durP1;ratioP1;P1;durP2;ratioP2;P2;SDS_P1;SDS_P2;PMS_P1;PMS_P2;Temp;Humidity;BMP_temperature;BMP_pressure;BME280_temperature;BME280_humidity;BME280_pressure;Samples;Min_cycle;Max_cycle;Signal;HPM_P1;HPM_P2
2021/05/16 00:00:21;;;;;;;2.95;1.38;;;10.70;78.50;;;;;;5072588;28;20259;-78
2021/05/16 00:02:47;;;;;;;3.33;1.40;;;10.70;79.10;;;;;;5072212;28;20240;-78
2021/05/16 00:05:17;;;;;;;1.77;1.15;;;10.70;79.90;;;;;;5059272;28;20707;-77
2021/05/16 00:07:43;;;;;;;2.05;1.00;;;10.70;81.00;;;;;;5051215;28;20297;-78
2021/05/16 00:10:12;;;;;;;1.95;1.00;;;10.70;81.70;;;;;;5052497;28;20289;-79
2021/05/16 00:12:39;;;;;;;1.92;1.30;;;10.70;82.40;;;;;;5053670;28;20312;-79
2021/05/16 00:15:08;;;;;;;1.65;0.80;;;10.60;83.20;;;;;;5060900;28;20313;-78
2021/05/16 00:17:35;;;;;;;3.15;1.20;;;10.60;84.30;;;;;;5071144;28;20247;-77
2021/05/16 00:20:02;;;;;;;1.08;0.98;;;10.60;85.20;;;;;;5071568;28;20495;-77
2021/05/16 00:22:28;;;;;;;2.83;1.17;;;10.60;85.30;;;;;;5074521;28;20222;-79
2021/05/16 00:24:54;;;;;;;1.38;1.00;;;10.50;87.70;;;;;;5076575;28;20209;-79
2021/05/16 00:27:21;;;;;;;1.20;1.10;;;10.50;88.10;;;;;;5061092;28;20274;-79
2021/05/16 00:29:48;;;;;;;2.30;1.17;;;10.50;88.80;;;;;;5056848;28;20268;-79
2021/05/16 00:32:14;;;;;;;1.40;1.30;;;10.40;89.40;;;;;;5074618;28;20218;-78
2021/05/16 00:34:41;;;;;;;1.45;1.10;;;10.40;90.10;;;;;;5081656;28;20709;-78
2021/05/16 00:37:07;;;;;;;1.50;1.40;;;10.40;90.10;;;;;;5069046;28;20265;-78
2021/05/16 00:39:34;;;;;;;2.55;1.20;;;10.40;90.20;;;;;;5059999;28;20270;-78
2021/05/16 00:42:00;;;;;;;3.42;1.10;;;10.40;90.30;;;;;;5069749;28;20281;-78
2021/05/16 00:44:26;;;;;;;3.15;1.27;;;10.40;90.60;;;;;;5056338;28;20244;-76
2021/05/16 00:46:54;;;;;;;1.02;0.90;;;10.40;90.80;;;;;;5072779;28;20228;-76
2021/05/16 00:49:20;;;;;;;1.20;1.00;;;10.40;90.90;;;;;;5086034;28;20241;-77
2021/05/16 00:51:46;;;;;;;3.08;1.10;;;10.40;91.00;;;;;;5067654;28;20237;-77
2021/05/16 00:54:13;;;;;;;2.25;1.00;;;10.40;90.80;;;;;;5059165;28;20279;-77
2021/05/16 00:56:39;;;;;;;2.83;1.40;;;10.40;90.80;;;;;;5077151;28;20308;-78
2021/05/16 00:59:06;;;;;;;2.45;1.10;;;10.40;91.00;;;;;;5082132;28;20202;-78
2021/05/16 01:01:32;;;;;;;1.58;1.48;;;10.40;91.00;;;;;;5063656;28;20218;-78
2021/05/16 01:03:59;;;;;;;2.85;1.30;;;10.50;91.10;;;;;;5058298;28;20693;-78
2021/05/16 01:06:26;;;;;;;1.63;1.17;;;10.40;90.80;;;;;;5067521;28;20588;-78
2021/05/16 01:08:56;;;;;;;2.38;1.20;;;10.40;90.50;;;;;;5077141;28;20597;-78
2021/05/16 01:11:27;;;;;;;2.58;1.15;;;10.50;90.30;;;;;;5065446;28;20218;-76
2021/05/16 01:13:54;;;;;;;4.00;1.27;;;10.50;90.20;;;;;;5064908;28;20209;-77
2021/05/16 01:16:21;;;;;;;1.75;1.30;;;10.60;90.40;;;;;;5083515;28;20654;-78
2021/05/16 01:18:47;;;;;;;1.20;1.10;;;10.60;90.10;;;;;;5075323;28;20213;-77
2021/05/16 01:21:16;;;;;;;1.25;0.90;;;10.60;90.20;;;;;;5067055;28;20207;-78
2021/05/16 01:23:46;;;;;;;1.60;1.30;;;10.60;90.10;;;;;;5057302;28;20221;-78
2021/05/16 01:26:13;;;;;;;4.15;0.90;;;10.50;90.40;;;;;;5056193;28;20297;-78
2021/05/16 01:28:42;;;;;;;2.33;1.08;;;10.40;90.40;;;;;;5066406;28;20298;-78
2021/05/16 01:31:08;;;;;;;3.63;1.42;;;10.50;90.80;;;;;;5066637;28;20214;-78
2021/05/16 01:33:35;;;;;;;1.65;1.20;;;10.50;90.50;;;;;;5060581;28;20238;-77
2021/05/16 01:36:01;;;;;;;2.35;1.10;;;10.50;90.40;;;;;;5075850;28;20849;-77
2021/05/16 01:38:28;;;;;;;6.32;1.17;;;10.60;90.20;;;;;;5076198;28;20224;-77
2021/05/16 01:40:56;;;;;;;1.98;0.90;;;10.60;90.30;;;;;;5078256;28;20273;-77
2021/05/16 01:43:23;;;;;;;2.38;1.40;;;10.60;90.30;;;;;;5080867;28;20197;-77
2021/05/16 01:45:49;;;;;;;6.90;1.60;;;10.50;90.30;;;;;;5056996;28;20238;-78
2021/05/16 01:48:15;;;;;;;2.17;1.23;;;10.50;90.40;;;;;;5060531;28;20202;-77
2021/05/16 01:50:42;;;;;;;2.38;1.30;;;10.60;90.70;;;;;;5075451;28;20233;-76
2021/05/16 01:53:09;;;;;;;2.70;1.25;;;10.60;90.90;;;;;;5079184;28;20257;-77
2021/05/16 01:55:37;;;;;;;5.03;2.28;;;10.60;90.60;;;;;;5062589;28;20309;-76
2021/05/16 01:58:05;;;;;;;6.15;1.45;;;10.60;91.10;;;;;;5057899;28;20238;-77
2021/05/16 02:00:33;;;;;;;1.98;1.38;;;10.60;91.50;;;;;;5079540;28;20236;-78
2021/05/16 02:03:00;;;;;;;4.25;1.60;;;10.60;91.50;;;;;;5085659;28;20198;-78
2021/05/16 02:05:27;;;;;;;2.30;1.40;;;10.60;91.50;;;;;;5084881;28;20217;-77
2021/05/16 02:07:54;;;;;;;1.83;1.25;;;10.60;91.50;;;;;;5076754;28;20199;-77
2021/05/16 02:10:23;;;;;;;1.42;1.17;;;10.60;92.40;;;;;;5068270;28;20297;-79
2021/05/16 02:12:50;;;;;;;2.00;1.20;;;10.50;92.90;;;;;;5067125;28;20272;-80
2021/05/16 02:15:17;;;;;;;3.25;1.15;;;10.50;93.50;;;;;;5061176;28;20198;-80
2021/05/16 02:17:44;;;;;;;1.83;1.50;;;10.50;94.30;;;;;;5069929;28;20612;-79
2021/05/16 02:20:15;;;;;;;2.10;1.30;;;10.50;94.90;;;;;;5080887;28;20305;-79
2021/05/16 02:22:41;;;;;;;2.95;1.33;;;10.50;95.10;;;;;;5072623;28;20302;-78
2021/05/16 02:25:09;;;;;;;2.10;1.30;;;10.50;95.10;;;;;;5076229;28;20194;-78
2021/05/16 02:27:36;;;;;;;4.20;1.70;;;10.40;95.00;;;;;;5077196;28;20194;-76
2021/05/16 02:30:05;;;;;;;3.03;1.40;;;10.40;95.60;;;;;;5082103;28;20209;-77
2021/05/16 02:32:32;;;;;;;2.05;1.48;;;10.30;96.00;;;;;;5088782;28;20251;-79
2021/05/16 02:34:58;;;;;;;2.05;1.58;;;10.30;96.10;;;;;;5092424;28;20246;-76
2021/05/16 02:37:25;;;;;;;3.40;1.50;;;10.40;96.60;;;;;;5076567;28;20230;-76
2021/05/16 02:39:51;;;;;;;2.95;1.73;;;10.40;96.90;;;;;;5065156;28;20213;-78
2021/05/16 02:42:18;;;;;;;2.50;1.60;;;10.40;97.20;;;;;;5062185;28;20226;-79
2021/05/16 02:44:44;;;;;;;4.65;1.73;;;10.40;97.10;;;;;;5061608;28;20619;-80
2021/05/16 02:47:11;;;;;;;3.88;1.80;;;10.50;97.20;;;;;;5081207;28;20245;-79
2021/05/16 02:49:38;;;;;;;2.30;1.77;;;10.40;97.10;;;;;;5074716;28;20266;-79
2021/05/16 02:52:04;;;;;;;3.38;1.30;;;10.40;97.20;;;;;;5064158;28;20245;-80
2021/05/16 02:54:31;;;;;;;1.92;1.60;;;10.50;96.90;;;;;;5073910;28;20228;-79
2021/05/16 02:56:57;;;;;;;2.67;1.60;;;10.50;97.00;;;;;;5089487;28;20233;-80
2021/05/16 02:59:25;;;;;;;4.75;1.80;;;10.50;96.90;;;;;;5076780;28;20268;-80
2021/05/16 03:01:52;;;;;;;3.58;1.35;;;10.50;96.80;;;;;;5072932;28;20201;-79
2021/05/16 03:04:19;;;;;;;3.20;1.58;;;10.50;96.70;;;;;;5063306;28;20266;-78
2021/05/16 03:06:46;;;;;;;7.20;1.85;;;10.40;96.40;;;;;;5056653;28;20229;-78
2021/05/16 03:09:12;;;;;;;3.22;1.60;;;10.50;96.80;;;;;;5055055;28;20245;-79
2021/05/16 03:11:38;;;;;;;2.70;1.67;;;10.50;96.50;;;;;;5057099;28;20214;-79
2021/05/16 03:14:05;;;;;;;3.10;1.65;;;10.50;96.20;;;;;;5080044;28;20213;-81
2021/05/16 03:16:31;;;;;;;2.13;1.65;;;10.50;96.20;;;;;;5074820;28;20234;-78
2021/05/16 03:18:58;;;;;;;2.45;1.40;;;10.60;96.00;;;;;;5072297;28;20297;-78
2021/05/16 03:21:25;;;;;;;2.15;1.40;;;10.60;95.80;;;;;;5071978;28;20296;-79
2021/05/16 03:23:51;;;;;;;3.10;1.50;;;10.60;95.50;;;;;;5071613;28;20241;-78
2021/05/16 03:26:18;;;;;;;1.85;1.25;;;10.60;95.40;;;;;;5070399;28;20678;-79
2021/05/16 03:28:44;;;;;;;2.42;1.20;;;10.60;95.20;;;;;;5072038;28;20292;-80
2021/05/16 03:31:11;;;;;;;4.07;1.20;;;10.60;95.50;;;;;;5071579;28;20688;-79
2021/05/16 03:33:37;;;;;;;2.42;1.58;;;10.60;95.80;;;;;;5072245;28;20278;-78
2021/05/16 03:36:05;;;;;;;2.72;1.40;;;10.60;95.90;;;;;;5071608;28;20271;-80
2021/05/16 03:38:32;;;;;;;3.20;1.48;;;10.50;96.00;;;;;;5071486;28;20198;-78
2021/05/16 03:40:59;;;;;;;3.55;1.40;;;10.60;96.10;;;;;;5071514;28;20725;-79
2021/05/16 03:43:26;;;;;;;2.38;1.13;;;10.50;96.20;;;;;;5071867;28;20205;-79
2021/05/16 03:45:53;;;;;;;5.20;2.10;;;10.60;96.20;;;;;;5071511;28;20228;-79
2021/05/16 03:48:20;;;;;;;1.80;1.60;;;10.50;96.20;;;;;;5071506;28;20206;-78
2021/05/16 03:50:46;;;;;;;3.15;1.92;;;10.50;96.60;;;;;;5071878;28;20213;-79
2021/05/16 03:53:12;;;;;;;4.30;1.92;;;10.50;96.70;;;;;;5071816;28;20875;-79
2021/05/16 03:55:40;;;;;;;6.05;1.73;;;10.60;97.10;;;;;;5075426;28;20713;-79
2021/05/16 03:58:06;;;;;;;2.65;1.52;;;10.60;97.10;;;;;;5080819;28;20228;-78
2021/05/16 04:00:32;;;;;;;3.38;1.48;;;10.60;96.90;;;;;;5076634;28;20216;-79
2021/05/16 04:02:59;;;;;;;3.00;1.50;;;10.60;96.90;;;;;;5076969;28;20232;-78
2021/05/16 04:05:25;;;;;;;6.90;1.70;;;10.60;97.00;;;;;;5063936;28;20701;-80
2021/05/16 04:07:52;;;;;;;2.40;1.60;;;10.60;97.00;;;;;;5056335;28;20248;-78
2021/05/16 04:10:18;;;;;;;3.05;1.80;;;10.60;97.00;;;;;;5074825;28;20197;-81
2021/05/16 04:12:45;;;;;;;2.90;2.10;;;10.60;96.70;;;;;;5070060;28;20229;-79
2021/05/16 04:15:12;;;;;;;5.35;1.58;;;10.70;96.80;;;;;;5056285;28;20305;-79
2021/05/16 04:17:38;;;;;;;4.57;1.40;;;10.70;96.50;;;;;;5055809;28;20290;-79
2021/05/16 04:20:06;;;;;;;2.17;1.98;;;10.60;96.00;;;;;;5058232;28;20301;-78
2021/05/16 04:22:32;;;;;;;5.25;1.80;;;10.70;96.30;;;;;;5059152;28;20245;-79
2021/05/16 04:24:59;;;;;;;3.95;1.60;;;10.70;96.20;;;;;;5056848;28;20301;-79
2021/05/16 04:27:25;;;;;;;3.25;1.70;;;10.70;96.10;;;;;;5056718;28;20238;-80
2021/05/16 04:29:53;;;;;;;3.15;1.65;;;10.80;95.70;;;;;;5056826;28;20210;-80
2021/05/16 04:32:19;;;;;;;3.35;1.70;;;10.80;95.50;;;;;;5060524;28;20226;-80
2021/05/16 04:34:45;;;;;;;2.42;1.70;;;10.70;95.20;;;;;;5076499;28;20598;-80
2021/05/16 04:37:12;;;;;;;6.15;1.90;;;10.80;95.20;;;;;;5075204;28;20786;-80
2021/05/16 04:39:38;;;;;;;8.45;2.00;;;10.80;95.20;;;;;;5075971;28;20248;-80
2021/05/16 04:42:05;;;;;;;5.20;2.75;;;10.90;94.90;;;;;;5076317;28;20411;-79
2021/05/16 04:44:31;;;;;;;8.18;2.47;;;11.00;94.20;;;;;;5075778;28;20241;-79
2021/05/16 04:46:59;;;;;;;5.20;1.42;;;11.00;93.40;;;;;;5063763;28;20301;-79
2021/05/16 04:49:25;;;;;;;6.43;1.90;;;11.10;92.50;;;;;;5056152;28;20285;-78
2021/05/16 04:51:51;;;;;;;6.22;1.77;;;11.20;91.80;;;;;;5062650;28;20242;-80
2021/05/16 04:54:18;;;;;;;2.42;1.60;;;11.30;91.20;;;;;;5076967;28;20210;-79
2021/05/16 04:56:44;;;;;;;2.85;1.60;;;11.30;90.90;;;;;;5059506;28;20260;-80
2021/05/16 04:59:10;;;;;;;2.55;1.30;;;11.30;90.40;;;;;;5057590;28;20264;-78
2021/05/16 05:01:38;;;;;;;8.60;1.70;;;11.30;90.00;;;;;;5055657;28;20213;-79
2021/05/16 05:04:06;;;;;;;2.97;1.25;;;11.20;90.20;;;;;;5056282;28;20215;-78
2021/05/16 05:06:32;;;;;;;3.10;1.65;;;11.30;90.10;;;;;;5055387;28;20308;-77
2021/05/16 05:08:59;;;;;;;1.13;1.00;;;11.40;90.30;;;;;;5056651;28;20269;-80
2021/05/16 05:11:26;;;;;;;2.53;1.42;;;11.50;89.10;;;;;;5059960;28;20298;-78
2021/05/16 05:13:53;;;;;;;3.45;1.30;;;11.50;89.20;;;;;;5065718;28;20266;-78
2021/05/16 05:16:19;;;;;;;2.25;1.27;;;11.50;88.30;;;;;;5076648;28;20226;-80
2021/05/16 05:18:46;;;;;;;6.63;1.40;;;11.60;87.30;;;;;;5098728;28;20267;-79
2021/05/16 05:21:13;;;;;;;2.25;1.17;;;11.70;86.20;;;;;;5099586;28;20197;-81
2021/05/16 05:23:39;;;;;;;4.72;1.08;;;11.80;86.30;;;;;;5099402;28;20221;-80
2021/05/16 05:26:06;;;;;;;3.30;1.30;;;11.80;86.30;;;;;;5090272;28;20268;-79
2021/05/16 05:28:32;;;;;;;2.80;1.20;;;11.80;87.10;;;;;;5078128;28;20205;-79
2021/05/16 05:30:59;;;;;;;2.60;1.50;;;11.80;87.10;;;;;;5077312;28;20312;-79
2021/05/16 05:33:25;;;;;;;1.77;1.05;;;11.80;88.10;;;;;;5062621;28;20257;-78
2021/05/16 05:35:52;;;;;;;3.88;1.48;;;11.80;90.00;;;;;;5066314;28;20237;-81
2021/05/16 05:38:20;;;;;;;5.28;1.48;;;11.90;89.90;;;;;;5076316;28;20213;-81
2021/05/16 05:40:46;;;;;;;3.85;1.52;;;12.00;89.60;;;;;;5063517;28;20291;-79
2021/05/16 05:43:12;;;;;;;3.65;1.40;;;12.10;88.80;;;;;;5081134;28;20201;-80
2021/05/16 05:45:40;;;;;;;5.35;1.50;;;12.10;89.00;;;;;;5096184;28;20225;-79
2021/05/16 05:48:07;;;;;;;2.40;1.48;;;12.20;86.70;;;;;;5086570;28;20249;-79
2021/05/16 05:50:33;;;;;;;1.80;1.08;;;12.20;86.70;;;;;;5075865;28;20210;-79
2021/05/16 05:53:02;;;;;;;1.60;0.88;;;12.30;86.10;;;;;;5075544;28;20800;-79
2021/05/16 05:55:30;;;;;;;2.40;1.30;;;12.50;84.50;;;;;;5076752;28;20226;-79
2021/05/16 05:57:57;;;;;;;2.22;1.00;;;12.60;82.40;;;;;;5079241;28;20657;-79
2021/05/16 06:00:28;;;;;;;2.45;1.20;;;12.60;80.60;;;;;;5097885;28;20202;-79
2021/05/16 06:02:55;;;;;;;3.05;1.30;;;12.60;79.10;;;;;;5097574;28;20197;-79
2021/05/16 06:05:21;;;;;;;2.00;1.20;;;12.60;80.50;;;;;;5098008;28;20197;-80
2021/05/16 06:07:48;;;;;;;6.60;1.77;;;12.70;78.70;;;;;;5081046;28;20199;-79
2021/05/16 06:10:14;;;;;;;3.60;1.20;;;12.70;78.70;;;;;;5077212;28;20190;-79
2021/05/16 06:12:42;;;;;;;3.17;1.52;;;12.90;78.90;;;;;;5089572;28;20230;-80
2021/05/16 06:15:09;;;;;;;2.00;1.10;;;13.00;74.70;;;;;;5090777;28;20209;-79
2021/05/16 06:17:36;;;;;;;2.00;1.30;;;13.10;73.60;;;;;;5084310;28;20297;-79
2021/05/16 06:20:03;;;;;;;1.27;1.08;;;13.20;73.90;;;;;;5077235;28;20210;-79
2021/05/16 06:22:30;;;;;;;1.52;0.98;;;13.20;72.70;;;;;;5076851;28;20208;-80
2021/05/16 06:24:56;;;;;;;2.55;1.40;;;13.20;73.80;;;;;;5071023;28;20229;-77
2021/05/16 06:27:23;;;;;;;2.05;0.95;;;13.40;73.70;;;;;;5075170;28;20241;-78
2021/05/16 06:29:51;;;;;;;2.47;1.17;;;13.50;70.70;;;;;;5074970;28;20251;-78
2021/05/16 06:32:20;;;;;;;5.40;1.10;;;13.70;69.90;;;;;;5074381;28;20265;-77
2021/05/16 06:34:47;;;;;;;1.92;1.00;;;13.80;67.70;;;;;;5065530;28;20212;-78
2021/05/16 06:37:13;;;;;;;1.85;1.00;;;14.00;66.80;;;;;;5052775;28;20313;-79
2021/05/16 06:39:40;;;;;;;3.78;1.23;;;14.00;67.00;;;;;;5052911;28;20738;-78
2021/05/16 06:42:08;;;;;;;3.70;1.00;;;14.10;65.70;;;;;;5054383;28;20558;-78
2021/05/16 06:44:34;;;;;;;2.53;1.15;;;14.20;64.00;;;;;;5056874;28;20203;-80
2021/05/16 06:47:01;;;;;;;1.20;1.00;;;14.40;63.70;;;;;;5056491;28;20250;-78
2021/05/16 06:49:28;;;;;;;1.70;0.90;;;14.50;60.70;;;;;;5062443;28;20270;-79
2021/05/16 06:51:55;;;;;;;1.73;1.00;;;14.50;60.60;;;;;;5081489;28;20555;-80
2021/05/16 06:54:21;;;;;;;1.02;0.90;;;14.40;60.50;;;;;;5074372;28;20646;-79
2021/05/16 06:56:48;;;;;;;1.70;0.77;;;14.40;60.60;;;;;;5073734;28;20294;-78
2021/05/16 06:59:14;;;;;;;1.27;0.80;;;14.40;61.20;;;;;;5074161;28;20205;-78
2021/05/16 07:01:41;;;;;;;1.77;0.93;;;14.50;60.20;;;;;;5055861;28;20577;-78
2021/05/16 07:04:08;;;;;;;2.15;0.80;;;14.50;59.20;;;;;;5064006;28;20237;-79
2021/05/16 07:06:35;;;;;;;4.75;1.17;;;14.50;59.10;;;;;;5077714;28;20226;-78
2021/05/16 07:09:05;;;;;;;1.30;0.90;;;14.70;58.90;;;;;;5066278;28;20199;-77
2021/05/16 07:11:32;;;;;;;2.70;1.00;;;14.70;58.00;;;;;;5056666;28;20211;-79
2021/05/16 07:13:58;;;;;;;2.33;1.10;;;14.40;58.90;;;;;;5065326;28;20221;-78
2021/05/16 07:16:25;;;;;;;3.50;1.45;;;14.20;60.10;;;;;;5078307;28;20218;-78
2021/05/16 07:18:52;;;;;;;1.83;1.00;;;14.10;60.30;;;;;;5068103;28;20716;-78
2021/05/16 07:21:20;;;;;;;2.85;1.45;;;14.10;60.60;;;;;;5053154;28;20206;-77
2021/05/16 07:23:47;;;;;;;4.80;1.30;;;14.20;60.30;;;;;;5053369;28;20240;-78
2021/05/16 07:26:14;;;;;;;2.05;1.10;;;14.40;60.20;;;;;;5053309;28;20329;-76
2021/05/16 07:28:40;;;;;;;2.85;1.02;;;14.70;58.30;;;;;;5057042;28;20616;-77
2021/05/16 07:31:07;;;;;;;2.05;0.80;;;14.90;56.80;;;;;;5056805;28;20752;-77
2021/05/16 07:33:35;;;;;;;5.38;1.30;;;15.00;55.70;;;;;;5073165;28;20218;-77
2021/05/16 07:36:01;;;;;;;3.83;1.00;;;15.00;53.90;;;;;;5057948;28;20227;-77
2021/05/16 07:38:28;;;;;;;2.92;1.15;;;15.00;53.90;;;;;;5057248;28;20210;-79
2021/05/16 07:40:55;;;;;;;4.85;1.38;;;15.10;54.00;;;;;;5057633;28;20615;-78
2021/05/16 07:43:24;;;;;;;3.97;1.17;;;15.20;54.10;;;;;;5057432;28;20206;-80
2021/05/16 07:45:51;;;;;;;3.15;1.65;;;15.30;54.20;;;;;;5082995;28;20446;-78
2021/05/16 07:48:17;;;;;;;3.23;1.23;;;15.30;54.20;;;;;;5092614;28;20206;-82
2021/05/16 07:50:44;;;;;;;4.70;1.40;;;15.30;53.60;;;;;;5064223;28;20460;-77
2021/05/16 07:53:10;;;;;;;2.93;1.60;;;15.50;54.00;;;;;;5053671;28;20527;-78
2021/05/16 07:55:40;;;;;;;2.42;1.00;;;16.10;53.00;;;;;;5068018;28;20545;-79
2021/05/16 07:58:06;;;;;;;3.50;1.30;;;16.50;50.10;;;;;;5072028;28;20296;-77
2021/05/16 08:00:33;;;;;;;5.43;1.47;;;16.50;50.40;;;;;;5064029;28;20451;-79
2021/05/16 08:02:59;;;;;;;3.00;1.20;;;16.30;49.90;;;;;;5073121;28;20447;-78
2021/05/16 08:05:26;;;;;;;8.13;1.00;;;16.00;50.10;;;;;;5072363;28;20664;-77
2021/05/16 08:07:52;;;;;;;3.83;1.53;;;15.80;50.80;;;;;;5072210;28;20275;-77
2021/05/16 08:10:22;;;;;;;3.73;1.47;;;16.00;50.80;;;;;;5071868;28;20422;-77
2021/05/16 08:12:49;;;;;;;2.10;1.30;;;16.00;51.80;;;;;;5073247;28;20459;-77
2021/05/16 08:15:16;;;;;;;8.07;1.40;;;16.00;50.50;;;;;;5062994;28;20459;-77
2021/05/16 08:17:42;;;;;;;4.90;2.40;;;16.00;49.50;;;;;;5051975;28;20427;-77
2021/05/16 08:20:10;;;;;;;3.80;1.60;;;16.10;48.80;;;;;;5071978;28;20470;-76
2021/05/16 08:22:37;;;;;;;3.43;1.60;;;16.50;48.50;;;;;;5073110;28;20505;-77
2021/05/16 08:25:04;;;;;;;6.27;1.53;;;17.00;46.00;;;;;;5054474;28;20480;-80
2021/05/16 08:27:30;;;;;;;4.30;1.73;;;16.70;45.80;;;;;;5052220;28;20469;-78
2021/05/16 08:29:57;;;;;;;4.67;1.60;;;16.30;46.10;;;;;;5052589;28;20463;-76
2021/05/16 08:32:24;;;;;;;3.30;1.13;;;16.40;46.20;;;;;;5052328;28;20455;-77
2021/05/16 08:34:50;;;;;;;5.10;1.67;;;16.60;45.70;;;;;;5068250;28;20452;-78
2021/05/16 08:37:17;;;;;;;4.67;2.10;;;17.10;46.20;;;;;;5055192;28;20458;-77
2021/05/16 08:39:43;;;;;;;5.60;1.53;;;17.50;44.40;;;;;;5052448;28;20450;-77
2021/05/16 08:42:11;;;;;;;7.23;1.83;;;17.70;43.30;;;;;;5066244;28;20527;-78
2021/05/16 08:44:37;;;;;;;4.27;1.43;;;17.40;43.20;;;;;;5082297;28;20429;-79
2021/05/16 08:47:06;;;;;;;5.43;1.53;;;17.10;45.40;;;;;;5073759;28;20447;-79
2021/05/16 08:49:33;;;;;;;4.07;1.50;;;17.10;41.90;;;;;;5065082;28;21014;-77
2021/05/16 08:51:59;;;;;;;9.87;2.37;;;16.60;43.70;;;;;;5079657;28;20447;-78
2021/05/16 08:54:26;;;;;;;3.80;1.57;;;16.40;45.50;;;;;;5081343;28;20474;-78
2021/05/16 08:56:53;;;;;;;6.20;1.90;;;16.50;45.00;;;;;;5064868;28;20480;-81
2021/05/16 08:59:21;;;;;;;3.63;1.30;;;16.80;44.90;;;;;;5061852;28;20514;-78
2021/05/16 09:01:49;;;;;;;2.93;1.83;;;17.00;43.10;;;;;;5076273;28;20455;-79
2021/05/16 09:04:21;;;;;;;5.13;1.90;;;17.40;43.90;;;;;;5085638;28;20858;-77
2021/05/16 09:06:53;;;;;;;4.63;1.80;;;17.20;43.40;;;;;;5075887;28;20484;-77
2021/05/16 09:09:41;;;;;;;7.53;2.10;;;17.10;43.70;;;;;;5066540;28;20452;-78
2021/05/16 09:12:09;;;;;;;4.30;1.70;;;17.20;41.30;;;;;;5067212;28;20452;-78
2021/05/16 09:14:47;;;;;;;5.53;1.53;;;17.20;40.60;;;;;;5055348;28;20460;-77
2021/05/16 09:17:27;;;;;;;3.07;1.70;;;17.00;41.10;;;;;;5056516;28;20500;-78
2021/05/16 09:19:57;;;;;;;5.40;1.50;;;17.00;40.70;;;;;;5075159;28;20430;-78
2021/05/16 09:22:37;;;;;;;3.80;2.03;;;17.00;41.10;;;;;;5074780;28;20945;-78
2021/05/16 09:25:16;;;;;;;5.47;1.97;;;17.00;41.70;;;;;;5074863;28;20494;-77
2021/05/16 09:27:44;;;;;;;3.93;1.50;;;17.00;41.80;;;;;;5070276;28;20653;-78
2021/05/16 09:30:25;;;;;;;5.90;2.03;;;17.10;42.40;;;;;;5055320;28;20428;-79
2021/05/16 09:32:53;;;;;;;3.00;1.40;;;17.30;41.90;;;;;;5059474;28;20476;-79
2021/05/16 09:35:27;;;;;;;4.97;1.60;;;17.70;39.80;;;;;;5075070;28;20458;-79
2021/05/16 09:37:58;;;;;;;7.60;2.37;;;17.20;40.60;;;;;;5064257;28;20799;-78
2021/05/16 09:40:26;;;;;;;7.13;1.77;;;17.00;44.20;;;;;;5062924;28;20463;-77
2021/05/16 09:43:20;;;;;;;2.93;1.23;;;16.90;45.90;;;;;;5086823;28;20452;-77
2021/05/16 09:45:55;;;;;;;3.93;1.90;;;16.50;45.20;;;;;;5070900;28;20489;-79
2021/05/16 09:48:31;;;;;;;7.60;2.00;;;16.60;45.70;;;;;;5066615;28;20453;-79
2021/05/16 09:51:23;;;;;;;4.03;1.90;;;16.80;46.40;;;;;;5061322;28;20488;-78
2021/05/16 09:53:58;;;;;;;2.93;1.93;;;17.00;46.80;;;;;;5066630;28;20579;-78
2021/05/16 09:56:27;;;;;;;7.97;2.20;;;16.80;44.70;;;;;;5081545;28;20983;-78
2021/05/16 09:58:54;;;;;;;3.17;1.23;;;16.70;41.60;;;;;;5066541;28;20983;-78
2021/05/16 10:01:22;;;;;;;5.20;1.60;;;16.90;43.60;;;;;;5062285;28;20525;-77
2021/05/16 10:03:49;;;;;;;6.20;2.27;;;17.50;41.50;;;;;;5059150;28;20782;-78
2021/05/16 10:06:17;;;;;;;5.20;1.87;;;17.70;40.30;;;;;;5078032;28;20479;-78
2021/05/16 10:08:47;;;;;;;4.00;1.77;;;17.60;39.50;;;;;;5078160;28;20547;-77
2021/05/16 10:11:15;;;;;;;3.30;1.73;;;17.50;39.90;;;;;;5079720;28;20923;-76
2021/05/16 10:13:50;;;;;;;2.53;1.30;;;17.60;39.80;;;;;;5077012;28;20537;-78
2021/05/16 10:16:18;;;;;;;12.10;2.83;;;17.50;39.30;;;;;;5081575;28;20479;-77
2021/05/16 10:18:46;;;;;;;3.20;1.60;;;17.50;37.60;;;;;;5080990;28;20502;-77
2021/05/16 10:21:13;;;;;;;4.83;1.70;;;17.50;38.90;;;;;;5082995;28;20452;-78
2021/05/16 10:23:40;;;;;;;5.37;1.67;;;17.70;40.10;;;;;;5085646;28;20519;-78
2021/05/16 10:26:25;;;;;;;5.07;1.43;;;18.10;37.00;;;;;;5070114;28;20919;-77
2021/05/16 10:29:04;;;;;;;5.23;1.80;;;18.30;37.20;;;;;;5058055;28;20431;-79
2021/05/16 10:31:45;;;;;;;4.20;1.47;;;18.30;36.90;;;;;;5079165;28;20420;-78
2021/05/16 10:34:42;;;;;;;4.53;1.57;;;18.10;37.00;;;;;;5087219;28;20458;-80
2021/05/16 10:37:12;;;;;;;3.30;1.20;;;18.10;37.00;;;;;;5066170;28;20490;-79
2021/05/16 10:39:55;;;;;;;4.37;1.27;;;18.20;35.60;;;;;;5059837;28;20527;-78
2021/05/16 10:42:32;;;;;;;3.40;1.40;;;18.20;36.40;;;;;;5061135;28;20493;-78
2021/05/16 10:45:12;;;;;;;5.07;1.40;;;18.30;35.90;;;;;;5057859;28;20456;-78
2021/05/16 10:48:09;;;;;;;7.27;2.40;;;18.20;36.20;;;;;;5058155;28;20517;-77
2021/05/16 10:50:51;;;;;;;3.10;1.23;;;18.40;34.70;;;;;;5065225;28;20484;-78
2021/05/16 10:53:34;;;;;;;4.63;1.60;;;18.80;34.90;;;;;;5059872;28;20520;-79
2021/05/16 10:56:17;;;;;;;5.07;1.70;;;18.50;31.90;;;;;;5069221;28;20480;-80
2021/05/16 10:58:48;;;;;;;3.50;1.27;;;18.10;34.30;;;;;;5081622;28;20452;-78
2021/05/16 11:01:16;;;;;;;6.37;1.80;;;17.80;34.70;;;;;;5077737;28;20823;-79
2021/05/16 11:03:55;;;;;;;3.73;1.13;;;17.60;35.90;;;;;;5075082;28;20453;-79
2021/05/16 11:06:23;;;;;;;3.60;1.43;;;17.80;36.70;;;;;;5073020;28;20476;-77
2021/05/16 11:09:12;;;;;;;3.17;1.37;;;17.90;35.70;;;;;;5073202;28;20484;-79
2021/05/16 11:11:40;;;;;;;3.03;1.50;;;18.00;35.50;;;;;;5058986;28;20455;-77
2021/05/16 11:14:16;;;;;;;5.20;1.60;;;18.60;35.50;;;;;;5072834;28;20484;-77
2021/05/16 11:16:47;;;;;;;2.90;1.50;;;19.20;34.30;;;;;;5058333;28;20454;-77
2021/05/16 11:19:14;;;;;;;6.40;1.90;;;19.30;32.00;;;;;;5055253;28;20591;-78
2021/05/16 11:21:41;;;;;;;6.37;2.00;;;19.10;31.40;;;;;;5073630;28;20488;-78
2021/05/16 11:24:08;;;;;;;4.93;1.50;;;18.80;32.60;;;;;;5061338;28;20477;-78
2021/05/16 11:26:35;;;;;;;4.23;1.43;;;18.60;30.80;;;;;;5086331;22;20527;-78
2021/05/16 11:29:03;;;;;;;6.63;1.50;;;18.50;32.80;;;;;;5078077;28;20459;-80
2021/05/16 11:31:33;;;;;;;1.83;1.20;;;18.70;31.50;;;;;;5081515;28;20451;-79
2021/05/16 11:34:01;;;;;;;3.73;1.50;;;18.80;32.30;;;;;;5078108;28;20480;-78
2021/05/16 11:36:29;;;;;;;1.60;1.27;;;19.00;32.50;;;;;;5080327;28;20438;-78
2021/05/16 11:38:58;;;;;;;4.50;1.60;;;19.40;31.80;;;;;;5066231;28;20805;-80
2021/05/16 11:41:35;;;;;;;3.00;1.50;;;19.60;30.70;;;;;;5059453;28;20468;-79
2021/05/16 11:44:05;;;;;;;6.20;1.40;;;19.20;31.20;;;;;;5078657;28;20460;-80
2021/05/16 11:46:34;;;;;;;3.27;1.10;;;19.00;30.00;;;;;;5095080;28;20498;-81
2021/05/16 11:49:03;;;;;;;4.73;1.70;;;19.10;30.00;;;;;;5095121;28;20448;-81
2021/05/16 11:51:32;;;;;;;1.50;1.40;;;19.10;29.80;;;;;;5094700;28;20456;-81
2021/05/16 11:54:00;;;;;;;9.37;1.67;;;19.30;30.20;;;;;;5093853;28;20450;-81
2021/05/16 11:56:29;;;;;;;3.27;1.13;;;19.70;28.70;;;;;;5091473;28;20505;-80
2021/05/16 11:58:57;;;;;;;3.93;1.30;;;19.80;28.80;;;;;;5077929;28;20426;-79
2021/05/16 12:01:26;;;;;;;6.30;1.70;;;19.70;28.70;;;;;;5077023;28;20520;-80
2021/05/16 12:03:59;;;;;;;3.90;1.40;;;19.70;28.70;;;;;;5094486;28;20445;-80
2021/05/16 12:06:26;;;;;;;5.93;1.37;;;19.60;28.60;;;;;;5095979;28;20492;-83
2021/05/16 12:09:01;;;;;;;2.90;1.20;;;19.80;28.80;;;;;;5078478;28;20423;-79
2021/05/16 12:11:29;;;;;;;3.07;1.43;;;20.00;28.90;;;;;;5064656;28;20517;-78
2021/05/16 12:14:14;;;;;;;2.23;1.60;;;20.10;29.00;;;;;;5086017;28;20486;-80
2021/05/16 12:16:41;;;;;;;4.33;1.47;;;20.00;28.90;;;;;;5093560;28;20453;-80
2021/05/16 12:19:09;;;;;;;2.53;1.33;;;20.20;29.00;;;;;;5085900;28;20463;-81
2021/05/16 12:21:36;;;;;;;2.93;1.23;;;20.20;29.00;;;;;;5078521;28;20453;-77
2021/05/16 12:24:05;;;;;;;2.33;1.00;;;20.40;29.20;;;;;;5076756;28;20454;-79
2021/05/16 12:26:34;;;;;;;3.50;1.23;;;20.30;29.10;;;;;;5082007;28;20544;-79
2021/05/16 12:29:01;;;;;;;6.00;1.23;;;20.40;29.20;;;;;;5067918;28;20431;-78
2021/05/16 12:31:29;;;;;;;3.73;1.30;;;20.70;29.40;;;;;;5061005;28;20813;-79
2021/05/16 12:34:01;;;;;;;4.90;1.50;;;20.80;28.70;;;;;;5062327;28;20466;-80
2021/05/16 12:36:29;;;;;;;4.07;1.23;;;20.80;28.90;;;;;;5067155;28;20511;-81
2021/05/16 12:38:56;;;;;;;3.13;1.60;;;20.60;29.30;;;;;;5079653;28;20404;-79
2021/05/16 12:41:25;;;;;;;4.30;2.10;;;20.80;28.70;;;;;;5078099;28;20491;-80
2021/05/16 12:44:23;;;;;;;2.87;1.20;;;20.90;28.10;;;;;;5066720;28;20445;-79
2021/05/16 12:46:49;;;;;;;5.90;1.20;;;21.00;28.40;;;;;;5030315;28;20983;-78
2021/05/16 12:49:19;;;;;;;2.67;1.13;;;21.30;27.20;;;;;;5070463;28;20449;-79
2021/05/16 12:51:55;;;;;;;3.40;1.20;;;21.10;27.50;;;;;;5064494;28;20456;-80
2021/05/16 12:54:23;;;;;;;2.30;1.13;;;20.80;27.30;;;;;;5064311;28;20465;-80